Time;durP1;ratioP1;P1;durP2;ratioP2;P2;SDS_P1;SDS_P2;PMS_P1;PMS_P2;Temp;Humidity;BMP_temperature;BMP_pressure;BME280_temperature;BME280_humidity;BME280_pressure;Samples;Min_cycle;Max_cycle;Signal;HPM_P1;HPM_P2
2023/11/02 00:01:53;;;;;;;10.27;5.47;;;5.30;99.90;;;;;;5101666;28;20434;-80
2023/11/02 00:04:22;;;;;;;8.57;5.45;;;5.30;99.90;;;;;;5115197;28;20038;-74
2023/11/02 00:06:49;;;;;;;8.57;5.00;;;5.30;99.90;;;;;;5113500;28;20027;-80
2023/11/02 00:09:34;;;;;;;8.90;5.55;;;5.30;99.90;;;;;;5115076;28;20033;-79
2023/11/02 00:12:25;;;;;;;9.75;5.40;;;5.30;99.90;;;;;;5102953;28;20035;-80
2023/11/02 00:14:52;;;;;;;8.75;5.25;;;5.30;99.90;;;;;;5114726;28;20062;-75
2023/11/02 00:17:35;;;;;;;7.25;4.82;;;5.20;99.90;;;;;;5113730;28;20114;-74
2023/11/02 00:20:25;;;;;;;7.47;5.68;;;5.20;99.90;;;;;;5101534;28;20035;-80
2023/11/02 00:22:53;;;;;;;9.98;5.10;;;5.20;99.90;;;;;;5111357;28;20020;-80
2023/11/02 00:25:41;;;;;;;9.25;5.20;;;5.20;99.90;;;;;;5113133;28;20038;-80
2023/11/02 00:28:10;;;;;;;7.95;4.97;;;5.10;99.90;;;;;;5100433;28;20032;-79
2023/11/02 00:30:36;;;;;;;10.45;5.20;;;5.10;99.90;;;;;;5113028;28;20054;-74
2023/11/02 00:33:02;;;;;;;10.50;5.15;;;5.10;99.90;;;;;;5114633;27;20107;-74
2023/11/02 00:35:27;;;;;;;6.95;4.78;;;5.10;99.90;;;;;;5112950;28;20106;-74
2023/11/02 00:37:54;;;;;;;8.80;5.10;;;5.10;99.90;;;;;;5114498;28;20032;-81
2023/11/02 00:40:20;;;;;;;7.45;4.97;;;5.10;99.90;;;;;;5112937;28;20030;-80
2023/11/02 00:42:48;;;;;;;8.23;5.30;;;5.10;99.90;;;;;;5114367;28;20027;-80
2023/11/02 00:45:14;;;;;;;10.30;4.93;;;5.10;99.90;;;;;;5111198;28;20024;-80
2023/11/02 00:47:41;;;;;;;8.93;4.88;;;5.10;99.90;;;;;;5114122;28;20057;-80
2023/11/02 00:50:33;;;;;;;7.70;4.70;;;5.10;99.90;;;;;;5114170;28;20049;-75
2023/11/02 00:52:59;;;;;;;6.68;4.47;;;5.10;99.90;;;;;;5112930;28;20464;-79
2023/11/02 00:55:35;;;;;;;6.20;4.78;;;5.20;99.90;;;;;;5113742;28;20051;-75
2023/11/02 00:58:11;;;;;;;8.75;4.30;;;5.20;99.90;;;;;;5112731;28;20024;-75
2023/11/02 01:00:49;;;;;;;10.32;5.38;;;5.20;99.90;;;;;;5102229;28;20024;-73
2023/11/02 01:03:14;;;;;;;6.70;4.47;;;5.20;99.90;;;;;;5112503;28;20024;-74
2023/11/02 01:05:40;;;;;;;5.50;4.32;;;5.20;99.90;;;;;;5113734;28;20504;-79
2023/11/02 01:08:06;;;;;;;7.45;4.32;;;5.20;99.90;;;;;;5098194;28;20035;-80
2023/11/02 01:10:32;;;;;;;8.45;4.50;;;5.20;99.90;;;;;;5113495;28;20077;-80
2023/11/02 01:12:57;;;;;;;9.32;5.75;;;5.10;99.90;;;;;;5113030;28;20027;-79
2023/11/02 01:15:42;;;;;;;7.53;5.47;;;5.10;99.90;;;;;;5112338;28;20016;-79
2023/11/02 01:18:11;;;;;;;6.10;4.65;;;5.10;99.90;;;;;;5101320;28;20024;-79
2023/11/02 01:20:43;;;;;;;7.70;4.63;;;5.10;99.90;;;;;;5113357;28;20061;-79
2023/11/02 01:23:17;;;;;;;7.43;4.80;;;5.00;99.90;;;;;;5113371;28;20106;-80
2023/11/02 01:25:46;;;;;;;9.02;5.90;;;5.00;99.90;;;;;;5113219;28;20438;-74
2023/11/02 01:28:17;;;;;;;6.90;5.07;;;5.00;99.90;;;;;;5099219;28;20134;-80
2023/11/02 01:30:54;;;;;;;8.00;4.80;;;5.00;99.90;;;;;;5111689;28;20393;-74
2023/11/02 01:33:38;;;;;;;5.07;4.57;;;5.00;99.90;;;;;;5113504;28;20020;-80
2023/11/02 01:36:08;;;;;;;7.10;5.75;;;5.10;99.90;;;;;;5110187;28;20034;-74
2023/11/02 01:38:34;;;;;;;5.90;4.78;;;5.10;99.90;;;;;;5112226;28;20391;-74
2023/11/02 01:41:09;;;;;;;10.00;5.43;;;5.10;99.90;;;;;;5111816;28;20526;-74
2023/11/02 01:43:57;;;;;;;11.60;7.32;;;5.20;99.90;;;;;;5100499;28;20039;-75
2023/11/02 01:46:36;;;;;;;9.73;6.10;;;5.20;99.90;;;;;;5112094;28;20472;-74
2023/11/02 01:49:17;;;;;;;9.75;5.25;;;5.20;99.90;;;;;;5111506;28;20106;-74
2023/11/02 01:51:56;;;;;;;8.93;6.15;;;5.20;99.90;;;;;;5109811;28;20020;-74
2023/11/02 01:54:44;;;;;;;8.93;5.78;;;5.20;99.90;;;;;;5101556;28;20030;-79
2023/11/02 01:57:28;;;;;;;8.88;5.68;;;5.20;99.90;;;;;;5111505;28;20031;-80
2023/11/02 02:00:05;;;;;;;10.18;6.35;;;5.20;99.90;;;;;;5113078;28;20023;-73
2023/11/02 02:02:56;;;;;;;8.52;5.88;;;5.20;99.90;;;;;;5112772;28;20012;-79
2023/11/02 02:05:30;;;;;;;7.63;5.20;;;5.30;99.90;;;;;;5099622;28;20023;-80
2023/11/02 02:08:08;;;;;;;10.77;5.70;;;5.30;99.90;;;;;;5112903;28;20461;-79
2023/11/02 02:11:00;;;;;;;7.88;5.55;;;5.30;99.90;;;;;;5113026;28;20480;-73
2023/11/02 02:13:49;;;;;;;12.65;5.65;;;5.30;99.90;;;;;;5112528;28;20026;-74
2023/11/02 02:16:26;;;;;;;9.40;5.28;;;5.40;99.90;;;;;;5112820;28;20016;-74
2023/11/02 02:18:56;;;;;;;7.63;6.15;;;5.40;99.90;;;;;;5112836;28;20035;-79
2023/11/02 02:21:38;;;;;;;11.13;5.82;;;5.40;99.90;;;;;;5111605;28;20385;-79
2023/11/02 02:24:11;;;;;;;8.25;5.03;;;5.50;99.90;;;;;;5112342;28;20024;-80
2023/11/02 02:26:49;;;;;;;13.82;8.15;;;5.50;99.90;;;;;;5106006;28;20384;-73
2023/11/02 02:29:26;;;;;;;11.73;6.32;;;5.50;99.90;;;;;;5100749;28;20118;-79
2023/11/02 02:32:10;;;;;;;8.43;5.90;;;5.50;99.90;;;;;;5112754;28;20040;-79
2023/11/02 02:34:57;;;;;;;9.65;6.35;;;5.40;99.90;;;;;;5113217;28;20106;-80
2023/11/02 02:37:29;;;;;;;8.60;5.65;;;5.40;99.90;;;;;;5116871;27;20077;-73
2023/11/02 02:40:05;;;;;;;9.35;5.88;;;5.40;99.90;;;;;;5116556;28;20102;-79
2023/11/02 02:42:34;;;;;;;8.52;5.30;;;5.40;99.90;;;;;;5116779;28;20047;-79
2023/11/02 02:45:06;;;;;;;9.30;5.47;;;5.40;99.90;;;;;;5116558;28;20023;-79
2023/11/02 02:47:33;;;;;;;9.13;5.70;;;5.40;99.90;;;;;;5116608;28;20040;-74
2023/11/02 02:50:02;;;;;;;11.32;5.90;;;5.50;99.90;;;;;;5115071;28;20088;-79
2023/11/02 02:52:29;;;;;;;7.03;5.07;;;5.50;99.90;;;;;;5114807;28;20023;-79
2023/11/02 02:54:57;;;;;;;9.07;5.65;;;5.50;99.90;;;;;;5116228;28;20031;-78
2023/11/02 02:57:28;;;;;;;8.65;5.55;;;5.50;99.90;;;;;;5116438;28;20423;-74
2023/11/02 02:59:58;;;;;;;9.57;5.65;;;5.50;99.90;;;;;;5116290;28;20020;-73
2023/11/02 03:02:30;;;;;;;9.07;6.20;;;5.50;99.90;;;;;;5115023;28;20401;-73
2023/11/02 03:04:56;;;;;;;9.45;5.28;;;5.50;99.90;;;;;;5116499;28;20020;-73
2023/11/02 03:07:25;;;;;;;7.05;4.88;;;5.50;99.90;;;;;;5115894;28;20389;-80
2023/11/02 03:09:55;;;;;;;9.07;5.45;;;5.50;99.90;;;;;;5115841;28;20415;-79
2023/11/02 03:12:26;;;;;;;6.80;4.40;;;5.50;99.90;;;;;;5116124;27;20023;-79
2023/11/02 03:14:54;;;;;;;9.10;5.00;;;5.50;99.90;;;;;;5114870;28;20507;-74
2023/11/02 03:17:21;;;;;;;8.27;4.75;;;5.50;99.90;;;;;;5115598;28;20020;-73
2023/11/02 03:19:48;;;;;;;7.13;5.45;;;5.50;99.90;;;;;;5115890;28;20022;-74
2023/11/02 03:22:19;;;;;;;8.70;4.95;;;5.50;99.90;;;;;;5112687;28;20481;-74
2023/11/02 03:25:00;;;;;;;6.70;4.40;;;5.50;99.90;;;;;;5103663;28;20024;-74
2023/11/02 03:27:46;;;;;;;6.40;4.03;;;5.60;99.90;;;;;;5115475;28;20055;-79
2023/11/02 03:30:33;;;;;;;5.57;3.95;;;5.50;99.90;;;;;;5115423;28;20047;-79
2023/11/02 03:33:22;;;;;;;5.75;4.18;;;5.50;99.90;;;;;;5115889;28;20139;-74
2023/11/02 03:36:12;;;;;;;6.72;4.25;;;5.50;99.90;;;;;;5115626;27;20024;-74
2023/11/02 03:38:40;;;;;;;7.65;4.00;;;5.50;99.90;;;;;;5114179;28;20024;-74
2023/11/02 03:41:36;;;;;;;5.55;3.97;;;5.50;99.90;;;;;;5115599;28;20031;-80
2023/11/02 03:44:31;;;;;;;6.53;4.25;;;5.50;99.90;;;;;;5103724;28;20540;-80
2023/11/02 03:47:19;;;;;;;6.13;4.32;;;5.50;99.90;;;;;;5098060;28;20066;-80
2023/11/02 03:50:06;;;;;;;7.15;4.05;;;5.50;99.90;;;;;;5107055;28;20027;-80
2023/11/02 03:52:44;;;;;;;5.63;4.45;;;5.50;99.90;;;;;;5102422;28;20051;-80
2023/11/02 03:55:19;;;;;;;4.53;4.00;;;5.50;99.90;;;;;;5112296;28;20114;-80
2023/11/02 03:58:50;;;;;;;6.93;4.35;;;5.50;99.90;;;;;;5115098;28;20024;-74
2023/11/02 04:01:42;;;;;;;6.35;4.40;;;5.50;99.90;;;;;;5053732;28;20017;-73
2023/11/02 04:04:11;;;;;;;4.40;3.60;;;5.60;99.90;;;;;;5059403;28;20023;-80
2023/11/02 04:06:47;;;;;;;3.80;3.20;;;5.60;99.90;;;;;;5093850;28;20039;-80
2023/11/02 04:09:18;;;;;;;4.25;3.13;;;5.70;99.90;;;;;;5114987;28;20057;-74
2023/11/02 04:12:03;;;;;;;3.50;3.20;;;5.70;99.90;;;;;;5114912;28;20055;-80
2023/11/02 04:14:33;;;;;;;4.55;3.47;;;5.80;99.90;;;;;;5104060;28;20451;-80
2023/11/02 04:16:59;;;;;;;5.93;3.47;;;5.80;99.90;;;;;;5114506;28;20107;-80
2023/11/02 04:19:24;;;;;;;5.40;3.45;;;5.80;99.90;;;;;;5113662;28;20015;-73
2023/11/02 04:21:50;;;;;;;6.43;4.53;;;5.70;99.90;;;;;;5109871;28;20077;-74
2023/11/02 04:24:16;;;;;;;8.50;4.00;;;5.70;99.90;;;;;;5113239;28;20023;-73
2023/11/02 04:26:42;;;;;;;5.57;4.22;;;5.70;99.90;;;;;;5112935;28;20027;-79
2023/11/02 04:29:08;;;;;;;7.90;4.88;;;5.70;99.90;;;;;;5113171;28;20053;-80
2023/11/02 04:31:34;;;;;;;6.28;3.97;;;5.60;99.90;;;;;;5140783;27;20035;-74
2023/11/02 04:34:00;;;;;;;8.20;3.95;;;5.60;99.90;;;;;;5113385;28;20473;-74
2023/11/02 04:36:25;;;;;;;6.70;4.25;;;5.50;99.90;;;;;;5113004;28;20549;-80
2023/11/02 04:38:52;;;;;;;5.80;3.88;;;5.50;99.90;;;;;;5113213;28;20422;-74
2023/11/02 04:41:20;;;;;;;5.45;4.05;;;5.50;99.90;;;;;;5114181;28;20058;-74
2023/11/02 04:43:46;;;;;;;4.88;3.67;;;5.50;99.90;;;;;;5114056;28;20020;-74
2023/11/02 04:46:11;;;;;;;6.55;4.57;;;5.50;99.90;;;;;;5112902;28;20023;-79
2023/11/02 04:48:37;;;;;;;6.80;4.32;;;5.40;99.90;;;;;;5112999;28;20485;-73
2023/11/02 04:51:03;;;;;;;7.13;4.47;;;5.40;99.90;;;;;;5112008;28;20023;-79
2023/11/02 04:53:28;;;;;;;4.75;3.60;;;5.50;99.90;;;;;;5112836;28;20419;-73
2023/11/02 04:55:54;;;;;;;6.78;4.60;;;5.50;99.90;;;;;;5113794;28;20020;-79
2023/11/02 04:58:20;;;;;;;5.88;3.38;;;5.50;99.90;;;;;;5113778;28;20039;-79
2023/11/02 05:00:46;;;;;;;5.97;3.22;;;5.60;99.90;;;;;;5113769;28;20020;-73
2023/11/02 05:03:11;;;;;;;5.22;4.72;;;5.60;99.90;;;;;;5112523;28;20431;-73
2023/11/02 05:05:37;;;;;;;5.13;3.90;;;5.60;99.90;;;;;;5111204;28;20473;-79
2023/11/02 05:08:03;;;;;;;5.85;3.35;;;5.80;99.90;;;;;;5111111;28;20485;-73
2023/11/02 05:10:29;;;;;;;4.90;3.28;;;5.80;99.90;;;;;;5113429;28;20023;-74
2023/11/02 05:12:54;;;;;;;5.55;3.42;;;5.90;99.90;;;;;;5110270;28;20027;-79
2023/11/02 05:15:20;;;;;;;7.70;3.75;;;6.00;99.90;;;;;;5109414;28;20045;-79
2023/11/02 05:17:45;;;;;;;5.20;3.92;;;5.90;99.90;;;;;;5113688;28;20035;-73
2023/11/02 05:20:11;;;;;;;6.60;4.00;;;5.80;99.90;;;;;;5113524;28;20028;-78
2023/11/02 05:22:37;;;;;;;7.93;4.30;;;5.80;99.90;;;;;;5113542;28;20098;-80
2023/11/02 05:25:04;;;;;;;7.18;4.25;;;5.80;99.90;;;;;;5112285;28;20157;-79
2023/11/02 05:27:30;;;;;;;6.18;3.97;;;5.70;99.90;;;;;;5099142;28;20103;-74
2023/11/02 05:29:55;;;;;;;5.03;3.90;;;5.70;99.90;;;;;;5111755;28;20031;-79
2023/11/02 05:32:21;;;;;;;6.88;3.83;;;5.60;99.90;;;;;;5113713;28;20023;-79
2023/11/02 05:34:47;;;;;;;5.80;4.00;;;5.60;99.90;;;;;;5113401;28;20032;-74
2023/11/02 05:37:12;;;;;;;4.88;3.58;;;5.50;99.90;;;;;;5108276;28;20024;-74
2023/11/02 05:39:38;;;;;;;6.20;3.60;;;5.50;99.90;;;;;;5097475;28;20024;-74
2023/11/02 05:42:04;;;;;;;8.00;3.67;;;5.50;99.90;;;;;;5112398;28;20107;-80
2023/11/02 05:44:30;;;;;;;4.50;3.63;;;5.50;99.90;;;;;;5095755;28;20068;-80
2023/11/02 05:46:55;;;;;;;5.30;3.80;;;5.50;99.90;;;;;;5101889;28;20424;-79
2023/11/02 05:49:21;;;;;;;6.35;4.35;;;5.50;99.90;;;;;;5109722;28;20394;-80
2023/11/02 05:51:47;;;;;;;5.82;4.00;;;5.60;99.90;;;;;;5109138;28;20042;-80
2023/11/02 05:54:13;;;;;;;5.60;4.10;;;5.60;99.90;;;;;;5107998;28;20107;-80
2023/11/02 05:56:39;;;;;;;8.13;4.60;;;5.70;99.90;;;;;;5097566;28;20043;-80
2023/11/02 05:59:05;;;;;;;7.32;4.60;;;5.70;99.90;;;;;;5112667;28;20465;-81
2023/11/02 06:01:34;;;;;;;10.65;6.43;;;5.80;99.90;;;;;;5112304;28;20515;-80
2023/11/02 06:04:05;;;;;;;11.52;7.32;;;5.80;99.90;;;;;;5105104;28;20034;-82
2023/11/02 06:06:31;;;;;;;8.45;6.40;;;5.80;99.90;;;;;;5108989;28;20022;-81
2023/11/02 06:08:56;;;;;;;8.70;5.88;;;5.90;99.90;;;;;;5112738;28;20036;-81
2023/11/02 06:11:26;;;;;;;8.68;5.47;;;6.00;99.90;;;;;;5116420;28;20019;-80
2023/11/02 06:13:52;;;;;;;14.25;5.47;;;6.00;99.90;;;;;;5115851;27;20481;-79
2023/11/02 06:16:17;;;;;;;6.57;4.75;;;6.00;99.90;;;;;;5115563;28;20046;-80
2023/11/02 06:18:43;;;;;;;7.68;5.40;;;6.10;99.90;;;;;;5114717;28;20094;-80
2023/11/02 06:21:12;;;;;;;6.07;4.90;;;6.20;99.90;;;;;;5114844;28;20051;-80
2023/11/02 06:23:38;;;;;;;9.30;5.05;;;6.20;99.90;;;;;;5113814;27;20019;-81
2023/11/02 06:26:07;;;;;;;7.72;4.45;;;6.40;99.90;;;;;;5108319;28;20027;-82
2023/11/02 06:28:33;;;;;;;5.70;4.68;;;6.40;99.90;;;;;;5108691;28;20027;-81
2023/11/02 06:30:59;;;;;;;5.13;4.28;;;6.50;99.90;;;;;;5116467;28;20051;-80
2023/11/02 06:33:28;;;;;;;6.43;4.10;;;6.50;99.90;;;;;;5112240;28;20070;-81
2023/11/02 06:35:56;;;;;;;8.70;4.88;;;6.50;99.90;;;;;;5109278;28;20231;-75
2023/11/02 06:38:22;;;;;;;5.90;4.32;;;6.50;99.90;;;;;;5112195;27;20537;-74
2023/11/02 06:40:48;;;;;;;5.32;4.10;;;6.50;99.90;;;;;;5116178;28;20136;-75
2023/11/02 06:43:14;;;;;;;7.93;4.88;;;6.50;99.90;;;;;;5112796;28;20019;-74
2023/11/02 06:45:39;;;;;;;6.15;4.55;;;6.50;99.90;;;;;;5110711;28;20035;-75
2023/11/02 06:48:05;;;;;;;9.95;4.75;;;6.50;99.90;;;;;;5100596;28;20028;-74
2023/11/02 06:50:32;;;;;;;5.93;4.45;;;6.50;99.90;;;;;;5112725;28;20046;-74
2023/11/02 06:52:58;;;;;;;4.63;3.58;;;6.60;99.90;;;;;;5115776;28;20068;-75
2023/11/02 06:55:24;;;;;;;7.28;4.28;;;6.60;99.90;;;;;;5116005;28;20031;-74
2023/11/02 06:57:49;;;;;;;5.97;4.22;;;6.70;99.90;;;;;;5114448;28;20026;-74
2023/11/02 07:00:16;;;;;;;5.45;3.65;;;6.80;99.90;;;;;;5112579;28;20107;-75
2023/11/02 07:02:41;;;;;;;5.15;3.95;;;6.80;99.90;;;;;;5105172;28;20397;-74
2023/11/02 07:05:09;;;;;;;5.60;3.78;;;6.80;99.90;;;;;;5114348;28;20024;-75
2023/11/02 07:07:40;;;;;;;7.38;4.32;;;6.80;99.90;;;;;;5115361;28;20020;-75
2023/11/02 07:10:08;;;;;;;6.45;4.50;;;6.80;99.90;;;;;;5112427;28;20038;-75
2023/11/02 07:12:34;;;;;;;8.52;5.05;;;6.90;99.90;;;;;;5112133;28;20023;-75
2023/11/02 07:15:00;;;;;;;10.07;5.97;;;6.90;99.90;;;;;;5111072;28;20028;-74
2023/11/02 07:17:26;;;;;;;8.15;4.85;;;7.00;99.90;;;;;;5103774;28;20432;-75
2023/11/02 07:19:53;;;;;;;10.32;6.10;;;7.00;99.90;;;;;;5101930;28;20028;-75
2023/11/02 07:22:19;;;;;;;8.73;5.82;;;7.00;99.90;;;;;;5111979;28;20011;-75
2023/11/02 07:24:45;;;;;;;7.78;5.40;;;6.90;99.90;;;;;;5113742;28;20047;-75
2023/11/02 07:27:11;;;;;;;12.07;4.57;;;6.90;99.90;;;;;;5110041;28;20028;-81
2023/11/02 07:29:37;;;;;;;7.63;4.43;;;7.00;99.90;;;;;;5103208;28;20461;-77
2023/11/02 07:32:03;;;;;;;7.50;4.57;;;7.00;99.90;;;;;;5108922;28;20008;-81
2023/11/02 07:34:29;;;;;;;8.27;4.05;;;7.10;99.90;;;;;;5111424;28;20039;-81
2023/11/02 07:36:56;;;;;;;6.55;4.53;;;7.10;99.90;;;;;;5112877;28;20413;-81
2023/11/02 07:39:22;;;;;;;5.07;3.70;;;7.20;99.90;;;;;;5112846;28;20016;-81
2023/11/02 07:41:48;;;;;;;5.63;3.60;;;7.20;99.90;;;;;;5111470;28;20020;-81
2023/11/02 07:44:14;;;;;;;8.40;5.05;;;7.30;99.90;;;;;;5113106;28;20164;-81
2023/11/02 07:46:39;;;;;;;7.10;4.60;;;7.30;99.90;;;;;;5112815;28;20449;-81
2023/11/02 07:49:05;;;;;;;4.70;3.75;;;7.30;99.90;;;;;;5114467;28;20035;-81
2023/11/02 07:51:31;;;;;;;6.95;3.55;;;7.40;99.90;;;;;;5113007;28;20461;-81
2023/11/02 07:53:57;;;;;;;5.05;3.65;;;7.50;99.90;;;;;;5112834;28;20107;-81
2023/11/02 07:56:22;;;;;;;4.30;3.40;;;7.50;99.90;;;;;;5112605;28;20023;-76
2023/11/02 07:58:48;;;;;;;7.53;4.00;;;7.60;99.90;;;;;;5112689;28;20116;-75
2023/11/02 08:01:18;;;;;;;5.25;3.65;;;7.70;99.90;;;;;;5114264;28;20427;-82
2023/11/02 08:03:44;;;;;;;7.43;3.63;;;7.70;99.90;;;;;;5125332;27;20033;-81
2023/11/02 08:06:10;;;;;;;3.67;2.60;;;7.90;99.90;;;;;;5115001;28;20439;-76
2023/11/02 08:08:36;;;;;;;3.13;2.72;;;8.10;99.90;;;;;;5113570;28;20024;-76
2023/11/02 08:11:01;;;;;;;4.65;2.88;;;8.30;99.90;;;;;;5115035;28;20026;-76
2023/11/02 08:13:27;;;;;;;3.65;2.33;;;8.60;99.90;;;;;;5109830;28;20019;-81
2023/11/02 08:15:54;;;;;;;2.75;2.17;;;8.90;99.90;;;;;;5114402;28;20053;-76
2023/11/02 08:18:22;;;;;;;2.65;2.28;;;9.00;99.90;;;;;;5108878;28;20043;-76
2023/11/02 08:20:48;;;;;;;4.32;2.13;;;9.10;99.90;;;;;;5109646;28;20172;-76
2023/11/02 08:23:15;;;;;;;2.40;2.20;;;9.20;99.90;;;;;;5112012;28;20028;-75
2023/11/02 08:25:40;;;;;;;2.67;2.00;;;9.20;99.90;;;;;;5109788;28;20061;-76
2023/11/02 08:28:07;;;;;;;5.50;2.58;;;9.30;99.90;;;;;;5109238;28;20465;-82
2023/11/02 08:30:33;;;;;;;5.03;2.83;;;9.30;99.90;;;;;;5108604;28;20040;-76
2023/11/02 08:32:59;;;;;;;3.67;2.88;;;9.30;99.90;;;;;;5109041;28;20024;-76
2023/11/02 08:35:24;;;;;;;5.38;2.95;;;9.20;99.90;;;;;;5112406;28;20018;-76
2023/11/02 08:37:51;;;;;;;6.43;2.95;;;9.20;99.90;;;;;;5113680;28;20019;-76
2023/11/02 08:40:21;;;;;;;3.70;3.03;;;9.20;99.90;;;;;;5109596;28;20028;-76
2023/11/02 08:42:48;;;;;;;7.30;3.63;;;9.20;99.90;;;;;;5110091;28;20073;-76
2023/11/02 08:45:15;;;;;;;7.43;3.70;;;9.20;99.90;;;;;;5111744;28;20027;-76
2023/11/02 08:47:41;;;;;;;6.00;3.10;;;9.20;99.90;;;;;;5110784;28;20015;-75
2023/11/02 08:50:08;;;;;;;5.13;3.00;;;9.30;99.90;;;;;;5107676;28;20042;-76
2023/11/02 08:52:34;;;;;;;7.18;3.50;;;9.30;99.90;;;;;;5109474;28;20047;-76
2023/11/02 08:55:00;;;;;;;5.38;2.90;;;9.40;99.90;;;;;;5112377;28;20016;-83
2023/11/02 08:57:27;;;;;;;3.83;2.90;;;9.40;99.90;;;;;;5112726;28;20012;-76
2023/11/02 08:59:52;;;;;;;4.07;3.03;;;9.60;99.90;;;;;;5112599;28;20480;-83
2023/11/02 09:02:18;;;;;;;4.88;2.78;;;9.70;99.90;;;;;;5112902;28;20016;-76
2023/11/02 09:04:44;;;;;;;5.88;2.90;;;9.80;99.90;;;;;;5113790;28;20029;-82
2023/11/02 09:07:09;;;;;;;4.28;2.67;;;10.00;99.90;;;;;;5106672;28;20032;-76
2023/11/02 09:09:35;;;;;;;3.15;2.42;;;10.20;99.90;;;;;;5106346;28;20040;-82
2023/11/02 09:12:01;;;;;;;2.65;2.20;;;10.30;99.90;;;;;;5104064;28;20024;-82
2023/11/02 09:14:27;;;;;;;2.83;2.20;;;10.50;99.90;;;;;;5113505;28;20090;-76
2023/11/02 09:16:52;;;;;;;2.85;2.33;;;10.60;99.90;;;;;;5112096;28;20054;-82
2023/11/02 09:19:18;;;;;;;3.67;2.33;;;10.80;99.90;;;;;;5112153;28;20048;-77
2023/11/02 09:21:43;;;;;;;4.05;2.10;;;11.00;99.90;;;;;;5112880;28;20023;-76
2023/11/02 09:24:09;;;;;;;2.38;2.08;;;11.20;99.90;;;;;;5113278;28;20103;-82
2023/11/02 09:26:39;;;;;;;3.00;2.28;;;11.40;99.90;;;;;;5112026;28;20496;-82
2023/11/02 09:29:05;;;;;;;2.60;1.85;;;11.50;99.90;;;;;;5121234;27;20028;-77
2023/11/02 09:31:31;;;;;;;1.73;1.63;;;11.70;99.90;;;;;;5110552;28;20043;-77
2023/11/02 09:33:57;;;;;;;2.20;2.00;;;11.80;99.90;;;;;;5111655;28;20035;-77
2023/11/02 09:36:23;;;;;;;3.30;1.80;;;12.00;99.90;;;;;;5111503;28;20023;-77
2023/11/02 09:38:49;;;;;;;3.88;1.77;;;12.20;99.90;;;;;;5108421;28;20038;-77
2023/11/02 09:41:16;;;;;;;2.55;1.58;;;12.30;99.90;;;;;;5111477;28;20024;-77
2023/11/02 09:43:41;;;;;;;2.28;1.67;;;12.40;99.90;;;;;;5103808;28;20055;-77
2023/11/02 09:46:07;;;;;;;2.10;1.67;;;12.50;99.40;;;;;;5105306;28;20088;-77
2023/11/02 09:48:33;;;;;;;4.60;2.13;;;12.70;96.60;;;;;;5106008;28;20063;-77
2023/11/02 09:50:59;;;;;;;2.67;1.42;;;12.80;94.80;;;;;;5111108;28;20122;-77
2023/11/02 09:53:26;;;;;;;1.92;1.55;;;12.90;92.40;;;;;;5113481;28;20020;-83
2023/11/02 09:55:52;;;;;;;4.30;1.45;;;13.10;91.90;;;;;;5111651;28;20080;-83
2023/11/02 09:58:19;;;;;;;1.98;1.85;;;13.20;91.20;;;;;;5112083;28;20440;-77
2023/11/02 10:00:48;;;;;;;5.03;2.20;;;13.30;88.20;;;;;;5111527;28;20023;-83
2023/11/02 10:03:15;;;;;;;1.80;1.50;;;13.40;85.00;;;;;;5113162;28;20027;-77
2023/11/02 10:05:41;;;;;;;4.18;1.30;;;13.50;81.50;;;;;;5110633;28;20031;-83
2023/11/02 10:08:06;;;;;;;2.30;1.48;;;13.50;81.30;;;;;;5107151;28;20032;-83
2023/11/02 10:10:33;;;;;;;4.13;1.23;;;13.60;81.30;;;;;;5106905;28;20051;-83
2023/11/02 10:12:59;;;;;;;4.00;1.60;;;13.60;80.20;;;;;;5106804;28;20057;-84
2023/11/02 10:15:25;;;;;;;2.03;1.83;;;13.70;79.50;;;;;;5110713;28;20023;-83
2023/11/02 10:17:51;;;;;;;5.30;2.20;;;13.80;79.10;;;;;;5112152;28;20030;-84
2023/11/02 10:20:17;;;;;;;4.05;1.67;;;13.90;80.20;;;;;;5109651;28;20380;-82
2023/11/02 10:22:44;;;;;;;1.60;1.00;;;13.90;77.70;;;;;;5111701;28;20058;-77
2023/11/02 10:25:13;;;;;;;4.13;1.42;;;14.00;77.80;;;;;;5112743;28;20099;-77
2023/11/02 10:27:43;;;;;;;3.20;1.50;;;14.00;76.30;;;;;;5111645;28;20020;-77
2023/11/02 10:30:10;;;;;;;2.30;1.20;;;14.10;77.60;;;;;;5110831;28;20110;-77
2023/11/02 10:32:37;;;;;;;2.25;1.48;;;14.10;78.50;;;;;;5109008;28;20088;-83
2023/11/02 10:35:03;;;;;;;3.67;1.92;;;14.10;78.30;;;;;;5113393;28;20030;-77
2023/11/02 10:37:33;;;;;;;2.60;1.20;;;14.10;77.40;;;;;;5106402;28;20022;-83
2023/11/02 10:40:00;;;;;;;2.92;1.50;;;14.10;77.50;;;;;;5099682;28;20032;-84
2023/11/02 10:42:27;;;;;;;2.22;1.58;;;14.10;77.80;;;;;;5101165;28;20032;-83
2023/11/02 10:44:53;;;;;;;2.15;1.65;;;14.20;77.60;;;;;;5100167;28;20081;-83
2023/11/02 10:47:19;;;;;;;2.50;1.52;;;14.20;76.50;;;;;;5100003;28;20039;-83
2023/11/02 10:49:45;;;;;;;2.65;1.63;;;14.30;76.20;;;;;;5099147;28;20050;-84
2023/11/02 10:52:16;;;;;;;2.90;1.48;;;14.30;77.10;;;;;;5103599;28;20478;-83
2023/11/02 10:55:06;;;;;;;3.17;1.65;;;14.40;76.10;;;;;;5111608;28;20032;-84
2023/11/02 10:57:35;;;;;;;4.72;1.60;;;14.40;76.00;;;;;;5108756;28;20038;-77
2023/11/02 11:00:04;;;;;;;3.55;1.27;;;14.40;76.00;;;;;;5115229;27;20042;-77
2023/11/02 11:02:34;;;;;;;2.63;1.80;;;14.50;75.70;;;;;;5114822;27;20024;-77
2023/11/02 11:05:04;;;;;;;1.60;1.30;;;14.50;75.40;;;;;;5114410;27;20450;-84
2023/11/02 11:07:36;;;;;;;1.95;1.50;;;14.60;75.80;;;;;;5111915;27;20044;-84
2023/11/02 11:10:03;;;;;;;3.50;1.93;;;14.60;74.50;;;;;;5109966;28;20092;-83
2023/11/02 11:12:30;;;;;;;9.80;5.68;;;14.70;73.70;;;;;;5114948;28;20368;-84
2023/11/02 11:14:57;;;;;;;2.40;1.45;;;14.80;73.20;;;;;;5115227;28;20504;-84
2023/11/02 11:17:24;;;;;;;4.10;2.70;;;14.90;72.30;;;;;;5113310;28;20032;-84
2023/11/02 11:19:50;;;;;;;5.88;2.60;;;14.90;71.70;;;;;;5113772;28;20065;-84
2023/11/02 11:22:25;;;;;;;7.75;5.07;;;15.00;70.70;;;;;;5106480;27;20085;-84
2023/11/02 11:24:55;;;;;;;3.88;2.22;;;15.10;70.50;;;;;;5104641;28;20491;-84
2023/11/02 11:27:32;;;;;;;3.85;1.73;;;15.10;69.50;;;;;;5113909;27;20067;-84
2023/11/02 11:29:58;;;;;;;3.72;2.30;;;15.20;70.20;;;;;;5106202;28;20040;-84
2023/11/02 11:32:24;;;;;;;7.30;3.70;;;15.20;68.70;;;;;;5114474;27;20553;-84
2023/11/02 11:34:53;;;;;;;8.65;1.65;;;15.30;69.30;;;;;;5113260;28;20031;-85
2023/11/02 11:37:46;;;;;;;4.63;2.10;;;15.30;69.30;;;;;;5106496;27;20055;-85
2023/11/02 11:40:20;;;;;;;2.42;1.75;;;15.30;69.30;;;;;;5111850;28;20035;-78
2023/11/02 11:42:52;;;;;;;2.85;1.90;;;15.30;68.50;;;;;;5111949;28;20031;-84
2023/11/02 11:45:46;;;;;;;5.70;2.17;;;15.40;69.60;;;;;;5108321;28;20412;-75
2023/11/02 11:48:32;;;;;;;4.28;2.70;;;15.40;68.90;;;;;;5111540;28;20040;-76
2023/11/02 11:51:02;;;;;;;1.75;1.50;;;15.40;69.20;;;;;;5104475;28;20330;-76
2023/11/02 11:53:28;;;;;;;2.60;1.17;;;15.40;69.20;;;;;;5112469;28;20067;-76
2023/11/02 11:55:56;;;;;;;2.50;1.50;;;15.50;69.80;;;;;;5108753;28;20478;-76
2023/11/02 11:58:44;;;;;;;4.07;2.30;;;15.50;69.30;;;;;;5102581;28;20092;-77
2023/11/02 12:01:18;;;;;;;3.83;1.67;;;15.50;70.20;;;;;;5110995;28;20107;-76
2023/11/02 12:03:45;;;;;;;2.28;1.83;;;15.50;69.00;;;;;;5105741;28;20028;-76
2023/11/02 12:06:14;;;;;;;1.90;1.35;;;15.50;69.20;;;;;;5113760;28;20095;-83
2023/11/02 12:08:49;;;;;;;3.63;1.10;;;15.50;69.40;;;;;;5111790;28;20097;-83
2023/11/02 12:11:25;;;;;;;2.15;1.77;;;15.50;70.10;;;;;;5113187;28;20042;-76
2023/11/02 12:13:55;;;;;;;2.08;1.50;;;15.50;69.00;;;;;;5110754;28;20031;-76
2023/11/02 12:16:21;;;;;;;3.65;1.70;;;15.60;69.80;;;;;;5111257;28;20077;-76
2023/11/02 12:18:51;;;;;;;2.30;1.30;;;15.60;69.30;;;;;;5111059;28;20152;-76
2023/11/02 12:21:19;;;;;;;2.92;1.27;;;15.60;68.40;;;;;;5108820;28;20024;-76
2023/11/02 12:23:45;;;;;;;1.45;1.10;;;15.60;67.70;;;;;;5111413;28;20081;-75
2023/11/02 12:26:12;;;;;;;2.22;1.30;;;15.60;68.40;;;;;;5113323;28;20111;-75
2023/11/02 12:28:51;;;;;;;1.73;1.02;;;15.60;67.90;;;;;;5109650;28;20413;-75
2023/11/02 12:31:32;;;;;;;1.75;1.20;;;15.60;67.20;;;;;;5097547;28;20515;-75
2023/11/02 12:34:01;;;;;;;1.95;1.70;;;15.60;68.00;;;;;;5110010;28;20040;-74
2023/11/02 12:36:27;;;;;;;2.83;1.38;;;15.60;68.30;;;;;;5107790;28;20027;-74
2023/11/02 12:38:55;;;;;;;2.38;1.25;;;15.60;68.90;;;;;;5102495;28;20038;-75
2023/11/02 12:41:29;;;;;;;3.10;0.95;;;15.60;68.70;;;;;;5127093;27;20039;-74
2023/11/02 12:43:59;;;;;;;4.22;1.05;;;15.60;68.70;;;;;;5105802;28;20039;-74
2023/11/02 12:46:25;;;;;;;2.67;1.40;;;15.60;69.10;;;;;;5106960;28;20099;-81
2023/11/02 12:48:51;;;;;;;1.73;1.17;;;15.60;69.60;;;;;;5113130;27;20044;-81
2023/11/02 12:51:20;;;;;;;2.80;1.05;;;15.70;69.20;;;;;;5110880;28;20008;-74
2023/11/02 12:53:50;;;;;;;1.42;1.30;;;15.70;68.10;;;;;;5111895;28;20034;-75
2023/11/02 12:56:20;;;;;;;2.00;1.30;;;15.70;68.00;;;;;;5111190;27;20031;-82
2023/11/02 12:58:46;;;;;;;1.73;1.27;;;15.60;68.90;;;;;;5111590;28;20039;-81
2023/11/02 13:01:14;;;;;;;2.33;1.52;;;15.60;69.50;;;;;;5110486;28;20372;-81
2023/11/02 13:03:58;;;;;;;1.45;1.20;;;15.60;67.00;;;;;;5110836;28;20488;-82
2023/11/02 13:06:24;;;;;;;4.15;1.63;;;15.60;67.60;;;;;;5108441;28;20484;-82
2023/11/02 13:08:50;;;;;;;3.40;1.85;;;15.50;67.90;;;;;;5108547;28;20036;-82